Time;durP1;ratioP1;P1;durP2;ratioP2;P2;SDS_P1;SDS_P2;PMS_P1;PMS_P2;Temp;Humidity;BMP_temperature;BMP_pressure;BME280_temperature;BME280_humidity;BME280_pressure;Samples;Min_cycle;Max_cycle;Signal;HPM_P1;HPM_P2
2024/01/24 00:01:33;;;;;;;20.85;9.38;;;;;;;1.50;78.92;100724.91;4952275;29;20031;-41
2024/01/24 00:03:59;;;;;;;16.80;8.23;;;;;;;1.46;79.20;100731.34;4952295;29;20081;-41
2024/01/24 00:06:25;;;;;;;20.55;9.98;;;;;;;1.74;79.99;100719.50;4952338;29;20042;-39
2024/01/24 00:08:51;;;;;;;17.85;9.32;;;;;;;1.56;80.56;100729.66;4952528;29;20035;-40
2024/01/24 00:11:17;;;;;;;17.45;9.25;;;;;;;1.79;79.26;100724.38;4952421;29;20086;-40
2024/01/24 00:13:42;;;;;;;19.20;9.48;;;;;;;2.18;77.86;100725.59;4952511;29;20439;-40
2024/01/24 00:16:08;;;;;;;18.92;8.90;;;;;;;1.79;80.47;100720.00;4952328;29;20034;-39
2024/01/24 00:18:34;;;;;;;14.85;7.93;;;;;;;2.08;79.52;100720.25;4952539;29;20031;-40
2024/01/24 00:21:00;;;;;;;15.90;9.05;;;;;;;2.07;79.95;100725.63;4952497;29;20023;-40
2024/01/24 00:23:25;;;;;;;19.65;9.15;;;;;;;2.15;81.25;100720.56;4952363;29;20404;-40
2024/01/24 00:25:51;;;;;;;15.07;7.78;;;;;;;2.40;79.20;100732.56;4952389;29;20024;-40
2024/01/24 00:28:17;;;;;;;14.15;7.80;;;;;;;2.24;80.10;100727.69;4952388;29;20494;-40
2024/01/24 00:30:43;;;;;;;17.58;8.73;;;;;;;2.57;80.05;100728.53;4952493;29;20051;-40
2024/01/24 00:33:12;;;;;;;15.55;7.47;;;;;;;2.54;78.59;100734.03;4952283;29;20047;-41
2024/01/24 00:35:38;;;;;;;17.02;7.95;;;;;;;2.56;79.92;100740.00;4952679;29;20039;-40
2024/01/24 00:38:03;;;;;;;15.73;9.15;;;;;;;2.42;77.45;100746.41;4952706;29;20038;-40
2024/01/24 00:40:29;;;;;;;21.85;10.80;;;;;;;2.03;75.12;100751.28;4952758;29;20027;-40
2024/01/24 00:42:54;;;;;;;21.17;10.70;;;;;;;1.34;77.44;100738.41;4955318;28;20065;-37
2024/01/24 00:45:20;;;;;;;20.27;10.30;;;;;;;1.62;78.08;100741.47;4956393;29;20440;-26
2024/01/24 00:47:45;;;;;;;23.55;11.00;;;;;;;1.77;76.28;100737.63;4955794;29;20028;-26
2024/01/24 00:50:11;;;;;;;19.67;9.98;;;;;;;1.64;77.29;100744.78;4954988;29;20046;-27
2024/01/24 00:52:36;;;;;;;20.95;9.05;;;;;;;1.70;77.99;100746.97;4955922;29;20491;-27
2024/01/24 00:55:01;;;;;;;20.27;10.15;;;;;;;1.95;77.08;100730.91;4956233;29;20114;-27
2024/01/24 00:57:27;;;;;;;18.38;8.73;;;;;;;1.56;79.81;100735.75;4956023;29;20471;-27
2024/01/24 00:59:52;;;;;;;15.95;7.82;;;;;;;1.57;82.55;100736.59;4956074;29;20031;-27
2024/01/24 01:02:17;;;;;;;11.52;6.97;;;;;;;2.00;81.44;100729.69;4955510;29;20033;-26
2024/01/24 01:04:43;;;;;;;12.50;6.50;;;;;;;2.07;81.44;100728.25;4955969;29;20043;-26
2024/01/24 01:07:11;;;;;;;13.32;6.78;;;;;;;2.38;81.38;100726.59;4956041;29;20102;-27
2024/01/24 01:09:37;;;;;;;13.00;6.25;;;;;;;2.58;80.73;100726.72;4955872;29;20050;-27
2024/01/24 01:12:03;;;;;;;10.95;5.97;;;;;;;2.58;80.19;100721.47;4955940;29;20677;-27
2024/01/24 01:14:28;;;;;;;10.75;5.88;;;;;;;2.78;79.34;100727.69;4955784;29;20486;-26
2024/01/24 01:16:54;;;;;;;12.50;6.38;;;;;;;3.10;78.66;100724.97;4955720;29;20031;-27
2024/01/24 01:19:19;;;;;;;13.68;6.05;;;;;;;3.13;78.09;100732.59;4955799;29;20038;-26
2024/01/24 01:21:45;;;;;;;10.77;5.78;;;;;;;2.95;79.00;100729.72;4955684;29;20038;-27
2024/01/24 01:24:10;;;;;;;11.82;5.47;;;;;;;3.07;78.08;100731.31;4955827;29;20034;-27
2024/01/24 01:26:36;;;;;;;10.95;5.72;;;;;;;3.28;78.72;100731.28;4955168;29;20031;-27
2024/01/24 01:29:01;;;;;;;11.07;5.10;;;;;;;3.38;77.68;100728.69;4938199;29;20062;-26
2024/01/24 01:31:27;;;;;;;7.90;4.32;;;;;;;3.26;76.72;100725.31;4955353;29;20035;-27
2024/01/24 01:33:53;;;;;;;9.98;4.97;;;;;;;3.69;75.31;100723.38;4955350;29;20121;-27
2024/01/24 01:36:18;;;;;;;8.93;4.63;;;;;;;3.70;74.90;100730.31;4955479;29;20031;-27
2024/01/24 01:38:44;;;;;;;10.70;5.22;;;;;;;3.34;75.99;100724.66;4955387;29;20024;-27
2024/01/24 01:41:09;;;;;;;9.30;5.50;;;;;;;3.48;76.07;100729.56;4955376;29;20027;-27
2024/01/24 01:43:34;;;;;;;10.82;4.93;;;;;;;3.61;75.36;100717.97;4955243;29;20023;-26
2024/01/24 01:46:06;;;;;;;8.35;5.05;;;;;;;3.84;73.86;100732.56;4955082;29;20034;-26
2024/01/24 01:48:32;;;;;;;8.73;5.20;;;;;;;3.76;75.09;100729.78;4954844;29;20035;-26
2024/01/24 01:50:57;;;;;;;11.23;5.40;;;;;;;3.59;75.88;100722.53;4955500;29;20039;-27
2024/01/24 01:53:23;;;;;;;10.70;5.60;;;;;;;3.67;74.65;100722.69;4954258;28;20031;-27
2024/01/24 01:55:49;;;;;;;9.80;5.05;;;;;;;3.92;74.18;100716.06;4954808;29;20069;-27
2024/01/24 01:58:15;;;;;;;10.02;5.13;;;;;;;3.89;73.71;100725.09;4955347;29;20035;-27
2024/01/24 02:00:41;;;;;;;11.50;5.35;;;;;;;4.12;73.55;100719.56;4954977;29;20373;-26
2024/01/24 02:03:06;;;;;;;9.00;4.90;;;;;;;3.79;74.34;100718.13;4954790;29;20122;-27
2024/01/24 02:05:32;;;;;;;11.85;5.03;;;;;;;3.90;73.93;100705.69;4955063;29;20495;-26
2024/01/24 02:07:57;;;;;;;7.55;4.28;;;;;;;3.76;73.90;100707.88;4954651;29;20075;-27
2024/01/24 02:10:23;;;;;;;7.93;4.50;;;;;;;3.70;74.47;100720.63;4955123;29;20031;-26
2024/01/24 02:12:49;;;;;;;8.75;4.22;;;;;;;3.93;73.71;100709.84;4954581;29;20031;-39
2024/01/24 02:15:15;;;;;;;8.05;5.00;;;;;;;4.04;73.81;100716.81;4954213;29;20094;-37
2024/01/24 02:17:40;;;;;;;9.35;5.05;;;;;;;3.86;74.08;100717.44;4954377;29;20031;-40
2024/01/24 02:20:09;;;;;;;7.93;4.88;;;;;;;3.84;74.05;100723.84;4954415;29;20494;-40
2024/01/24 02:22:35;;;;;;;11.93;5.45;;;;;;;3.88;74.63;100722.59;4954242;29;20110;-39
2024/01/24 02:25:00;;;;;;;9.63;5.32;;;;;;;3.82;74.43;100723.13;4952906;29;20464;-40
2024/01/24 02:27:26;;;;;;;10.13;5.88;;;;;;;3.92;73.56;100723.97;4954629;29;20027;-40
2024/01/24 02:29:56;;;;;;;9.80;5.10;;;;;;;4.05;73.36;100726.34;4954308;29;20404;-38
2024/01/24 02:32:22;;;;;;;9.98;5.53;;;;;;;3.95;73.90;100725.53;4954161;29;20435;-39
2024/01/24 02:34:47;;;;;;;10.93;6.15;;;;;;;4.03;75.23;100728.28;4954213;29;20035;-39
2024/01/24 02:37:12;;;;;;;9.27;5.55;;;;;;;3.72;74.45;100731.84;4953976;29;20458;-37
2024/01/24 02:39:38;;;;;;;9.02;5.15;;;;;;;3.41;75.62;100723.16;4954200;29;20058;-40
2024/01/24 02:42:03;;;;;;;10.65;5.75;;;;;;;3.76;76.91;100724.50;4954513;29;20039;-39
2024/01/24 02:44:29;;;;;;;9.77;5.70;;;;;;;3.69;75.21;100690.00;4954243;29;20471;-40
2024/01/24 02:46:54;;;;;;;8.55;5.30;;;;;;;3.91;74.28;100720.50;4954052;29;20456;-39
2024/01/24 02:49:19;;;;;;;7.57;4.72;;;;;;;3.97;75.15;100718.31;4953510;29;20039;-39
2024/01/24 02:51:45;;;;;;;8.40;5.25;;;;;;;4.09;74.15;100718.06;4953773;29;20531;-39
2024/01/24 02:54:10;;;;;;;8.50;4.97;;;;;;;3.94;74.01;100721.22;4953551;29;20054;-40
2024/01/24 02:56:37;;;;;;;8.10;4.75;;;;;;;3.75;74.85;100720.22;4953971;29;20472;-39
2024/01/24 02:59:02;;;;;;;8.75;4.80;;;;;;;3.77;74.77;100707.75;4954008;29;20479;-40
2024/01/24 03:01:28;;;;;;;9.90;4.63;;;;;;;3.88;74.57;100726.06;4953846;29;20035;-40
2024/01/24 03:03:53;;;;;;;7.30;4.32;;;;;;;4.21;73.17;100720.56;4953740;29;20093;-39
2024/01/24 03:06:19;;;;;;;8.77;4.70;;;;;;;3.93;74.03;100715.13;4953055;28;20042;-38
2024/01/24 03:08:51;;;;;;;7.50;4.18;;;;;;;3.73;74.08;100714.22;4953659;29;20038;-41
2024/01/24 03:11:17;;;;;;;8.95;4.28;;;;;;;4.03;72.89;100708.03;4953751;29;20346;-41
2024/01/24 03:13:44;;;;;;;8.93;4.68;;;;;;;3.82;73.41;100712.59;4953652;29;20054;-41
2024/01/24 03:16:09;;;;;;;8.48;4.47;;;;;;;4.19;72.73;100723.34;4953428;29;20035;-37
2024/01/24 03:18:38;;;;;;;9.77;4.43;;;;;;;4.15;72.06;100727.22;4953456;29;20038;-40
2024/01/24 03:21:08;;;;;;;8.70;4.70;;;;;;;4.19;71.82;100722.47;4953593;29;20027;-40
2024/01/24 03:23:34;;;;;;;9.25;4.93;;;;;;;3.92;73.57;100723.97;4953929;29;20039;-38
2024/01/24 03:26:00;;;;;;;7.88;4.40;;;;;;;4.18;72.25;100726.09;4953367;29;20507;-39
2024/01/24 03:28:25;;;;;;;5.65;3.90;;;;;;;4.15;72.39;100729.84;4953478;29;20031;-39
2024/01/24 03:30:51;;;;;;;7.50;4.40;;;;;;;4.35;71.47;100727.22;4953409;29;20063;-39
2024/01/24 03:33:17;;;;;;;6.70;3.65;;;;;;;4.30;71.50;100728.47;4953257;29;20421;-37
2024/01/24 03:35:42;;;;;;;6.80;4.05;;;;;;;4.29;72.03;100736.50;4953454;29;20037;-39
2024/01/24 03:38:08;;;;;;;9.10;4.55;;;;;;;4.45;71.88;100736.75;4953289;29;20043;-40
2024/01/24 03:40:33;;;;;;;6.85;3.95;;;;;;;4.30;71.01;100725.84;4953473;29;20042;-40
2024/01/24 03:42:59;;;;;;;8.13;5.00;;;;;;;4.49;70.61;100737.31;4953279;29;20148;-39
2024/01/24 03:45:24;;;;;;;7.18;4.10;;;;;;;4.25;71.11;100738.59;4953091;29;20384;-40
2024/01/24 03:47:49;;;;;;;6.78;4.35;;;;;;;4.33;71.67;100744.97;4953412;29;20031;-37
2024/01/24 03:50:15;;;;;;;6.13;4.22;;;;;;;4.32;71.11;100744.13;4953385;29;20034;-39
2024/01/24 03:52:40;;;;;;;7.53;4.22;;;;;;;4.08;71.34;100742.72;4953851;29;20023;-40
2024/01/24 03:55:06;;;;;;;7.75;4.40;;;;;;;4.17;71.78;100746.34;4953071;29;20380;-40
2024/01/24 03:57:31;;;;;;;6.25;4.03;;;;;;;4.17;71.07;100735.81;4953011;29;20041;-40
2024/01/24 03:59:57;;;;;;;9.77;4.53;;;;;;;4.26;70.99;100739.41;4953227;29;20417;-39
2024/01/24 04:02:22;;;;;;;7.18;4.07;;;;;;;4.22;70.81;100738.03;4953222;29;20115;-40
2024/01/24 04:04:47;;;;;;;6.72;4.32;;;;;;;4.45;70.81;100739.41;4953055;29;20031;-39
2024/01/24 04:07:13;;;;;;;7.20;4.63;;;;;;;4.24;70.25;100742.16;4953111;29;20047;-40
2024/01/24 04:09:38;;;;;;;7.13;4.05;;;;;;;4.13;70.61;100755.47;4953048;29;20048;-40
2024/01/24 04:12:04;;;;;;;7.75;4.32;;;;;;;4.16;70.85;100752.56;4953329;29;20031;-39
2024/01/24 04:14:29;;;;;;;6.45;4.10;;;;;;;4.60;69.67;100758.28;4952837;29;20447;-40
2024/01/24 04:16:55;;;;;;;6.80;4.03;;;;;;;4.66;68.92;100756.88;4954266;28;20035;-40
2024/01/24 04:19:20;;;;;;;7.88;4.10;;;;;;;4.41;69.77;100764.38;4956805;29;20039;-45
2024/01/24 04:21:46;;;;;;;8.32;4.28;;;;;;;4.44;69.81;100764.09;4956892;29;20034;-39
2024/01/24 04:24:11;;;;;;;8.13;4.20;;;;;;;3.87;71.50;100770.97;4956599;29;20451;-39
2024/01/24 04:26:37;;;;;;;8.57;4.15;;;;;;;4.06;71.00;100773.63;4956651;29;20034;-40
2024/01/24 04:29:02;;;;;;;7.28;4.10;;;;;;;4.20;70.32;100764.50;4956612;29;20026;-40
2024/01/24 04:31:28;;;;;;;7.07;3.92;;;;;;;4.44;68.97;100768.56;4956424;29;20110;-38
2024/01/24 04:33:54;;;;;;;7.57;4.18;;;;;;;4.37;69.35;100777.97;4956598;29;20043;-40
2024/01/24 04:36:20;;;;;;;8.68;4.07;;;;;;;4.21;69.98;100773.25;4956262;29;20090;-40
2024/01/24 04:38:45;;;;;;;6.40;3.67;;;;;;;4.26;69.73;100774.47;4955699;29;20035;-40
2024/01/24 04:41:11;;;;;;;6.80;4.10;;;;;;;4.22;69.61;100778.38;4956415;29;20432;-41
2024/01/24 04:43:36;;;;;;;5.97;3.75;;;;;;;4.14;70.42;100770.31;4955725;29;20027;-40
2024/01/24 04:46:02;;;;;;;7.20;3.72;;;;;;;4.26;69.54;100774.47;4956251;29;20042;-40
2024/01/24 04:48:27;;;;;;;6.60;3.97;;;;;;;4.24;69.23;100768.53;4956174;29;20091;-37
2024/01/24 04:50:53;;;;;;;8.93;4.72;;;;;;;4.27;69.49;100772.69;4956223;29;20031;-39
2024/01/24 04:53:19;;;;;;;9.10;4.50;;;;;;;4.05;70.36;100779.88;4955893;29;20054;-41
2024/01/24 04:55:44;;;;;;;9.70;4.20;;;;;;;4.17;69.96;100783.22;4955918;29;20027;-41
2024/01/24 04:58:11;;;;;;;6.18;3.95;;;;;;;4.46;69.48;100787.69;4954673;29;20391;-39
2024/01/24 05:00:36;;;;;;;8.02;4.43;;;;;;;4.93;67.89;100784.31;4938806;29;20433;-41
2024/01/24 05:03:02;;;;;;;8.07;4.75;;;;;;;5.42;65.46;100788.50;4955697;29;20051;-41
2024/01/24 05:05:27;;;;;;;9.60;4.93;;;;;;;5.43;64.63;100792.00;4956114;29;20038;-27
2024/01/24 05:07:52;;;;;;;8.27;4.90;;;;;;;5.32;65.32;100797.44;4955333;29;20043;-26
2024/01/24 05:10:18;;;;;;;8.05;4.90;;;;;;;5.51;64.20;100793.91;4954732;29;20027;-41
2024/01/24 05:12:43;;;;;;;7.70;4.60;;;;;;;5.20;64.87;100788.88;4954787;29;20035;-40
2024/01/24 05:15:10;;;;;;;7.20;4.60;;;;;;;4.97;65.85;100793.63;4954433;29;20371;-27
2024/01/24 05:17:37;;;;;;;9.10;5.03;;;;;;;4.86;68.11;100810.44;4954121;29;20074;-27
2024/01/24 05:20:05;;;;;;;9.13;4.40;;;;;;;5.23;65.32;100801.78;4954747;29;20028;-26
2024/01/24 05:22:32;;;;;;;10.68;5.05;;;;;;;5.46;69.17;100802.25;4954813;29;20023;-27
2024/01/24 05:24:57;;;;;;;8.63;4.90;;;;;;;5.54;65.93;100796.25;4955721;29;20076;-27
2024/01/24 05:27:23;;;;;;;9.02;5.03;;;;;;;5.99;65.03;100814.84;4954981;28;20029;-26
2024/01/24 05:29:48;;;;;;;7.50;4.68;;;;;;;5.82;63.50;100805.03;4954588;29;20053;-27
2024/01/24 05:32:14;;;;;;;8.27;4.60;;;;;;;5.61;63.71;100803.44;4954652;29;20138;-28
2024/01/24 05:34:39;;;;;;;8.13;4.75;;;;;;;5.27;65.51;100811.91;4954787;29;20049;-26
2024/01/24 05:37:04;;;;;;;8.68;5.00;;;;;;;5.31;64.92;100815.06;4954821;29;20480;-27
2024/01/24 05:39:30;;;;;;;10.13;4.95;;;;;;;5.45;63.88;100813.81;4954276;29;20069;-28
2024/01/24 05:41:55;;;;;;;8.20;4.80;;;;;;;5.54;64.04;100806.81;4954516;29;20027;-27
2024/01/24 05:44:21;;;;;;;8.07;4.85;;;;;;;5.48;64.83;100813.50;4954882;29;20143;-26
2024/01/24 05:46:46;;;;;;;9.80;4.90;;;;;;;5.31;63.77;100804.50;4954704;29;20024;-27
2024/01/24 05:49:11;;;;;;;7.85;4.63;;;;;;;5.62;63.49;100810.41;4954313;29;20043;-27
2024/01/24 05:51:37;;;;;;;9.20;5.13;;;;;;;5.71;62.72;100806.03;4954399;29;20114;-28
2024/01/24 05:54:02;;;;;;;6.22;4.28;;;;;;;5.31;63.75;100819.53;4953216;29;20134;-27
2024/01/24 05:56:27;;;;;;;8.75;4.47;;;;;;;5.49;63.69;100826.56;4953576;29;20105;-27
2024/01/24 05:58:53;;;;;;;9.63;4.90;;;;;;;5.79;62.18;100816.72;4953929;29;20038;-27
2024/01/24 06:01:18;;;;;;;6.85;4.05;;;;;;;5.48;63.18;100816.13;4953834;29;20039;-28
2024/01/24 06:03:44;;;;;;;9.52;4.72;;;;;;;5.81;62.96;100820.06;4954042;29;20046;-28
2024/01/24 06:06:09;;;;;;;9.50;4.80;;;;;;;6.01;61.30;100817.34;4953828;29;20388;-28
2024/01/24 06:08:34;;;;;;;9.38;4.80;;;;;;;6.23;60.14;100816.94;4954149;29;20118;-27
2024/01/24 06:11:00;;;;;;;7.95;4.72;;;;;;;6.57;59.39;100820.75;4937072;29;20042;-27
2024/01/24 06:13:27;;;;;;;7.95;4.70;;;;;;;6.52;59.36;100820.38;4954501;29;20031;-27
2024/01/24 06:15:52;;;;;;;9.45;4.85;;;;;;;6.52;58.85;100815.06;4954526;29;20046;-28
2024/01/24 06:18:18;;;;;;;7.63;4.43;;;;;;;6.71;58.09;100828.13;4954211;29;20058;-26
2024/01/24 06:20:45;;;;;;;9.98;4.60;;;;;;;6.52;58.41;100826.47;4954571;29;20107;-27
2024/01/24 06:23:10;;;;;;;8.05;4.60;;;;;;;6.65;57.61;100834.88;4954571;29;20035;-28
2024/01/24 06:25:36;;;;;;;9.73;4.28;;;;;;;6.41;58.68;100835.44;4954102;29;20563;-27
2024/01/24 06:28:01;;;;;;;9.55;4.85;;;;;;;7.37;57.04;100839.25;4954219;29;20031;-28
2024/01/24 06:30:26;;;;;;;8.15;4.45;;;;;;;7.28;56.53;100840.19;4954162;29;20031;-32
2024/01/24 06:32:52;;;;;;;7.65;4.50;;;;;;;7.54;55.56;100848.09;4954099;29;20055;-26
2024/01/24 06:35:17;;;;;;;8.45;4.88;;;;;;;8.09;54.98;100845.06;4954041;29;20097;-27
2024/01/24 06:37:42;;;;;;;8.45;4.70;;;;;;;7.98;53.64;100840.06;4954006;29;20146;-28
2024/01/24 06:40:09;;;;;;;7.88;4.22;;;;;;;7.83;53.54;100830.03;4953678;28;20065;-26
2024/01/24 06:42:35;;;;;;;7.63;4.50;;;;;;;7.61;54.59;100834.06;4953955;29;20038;-26
2024/01/24 06:45:01;;;;;;;9.10;4.80;;;;;;;7.58;55.01;100838.88;4953943;29;20031;-27
2024/01/24 06:47:26;;;;;;;8.43;4.82;;;;;;;7.38;55.54;100825.81;4953939;29;20527;-43
2024/01/24 06:49:51;;;;;;;8.40;4.35;;;;;;;7.43;54.89;100826.19;4953600;29;20031;-41
2024/01/24 06:52:17;;;;;;;9.90;4.88;;;;;;;7.96;53.47;100820.84;4953650;29;20027;-41
2024/01/24 06:54:42;;;;;;;10.43;4.95;;;;;;;8.09;53.71;100828.31;4953441;29;20039;-43
2024/01/24 06:57:07;;;;;;;7.93;4.60;;;;;;;8.65;52.33;100821.50;4953770;29;20263;-39
2024/01/24 06:59:33;;;;;;;9.65;4.57;;;;;;;8.32;52.41;100829.41;4953186;29;20459;-40
2024/01/24 07:01:59;;;;;;;6.90;4.50;;;;;;;8.72;51.67;100826.97;4953643;29;20031;-40
2024/01/24 07:04:25;;;;;;;7.22;4.68;;;;;;;8.56;52.05;100835.75;4953629;29;20431;-43
2024/01/24 07:06:51;;;;;;;8.40;5.30;;;;;;;8.64;52.05;100838.41;4953408;29;20030;-40
2024/01/24 07:09:17;;;;;;;8.98;4.88;;;;;;;8.77;51.51;100838.75;4953105;29;20071;-42
2024/01/24 07:11:42;;;;;;;8.13;4.72;;;;;;;9.10;50.99;100844.09;4953473;29;20031;-39
2024/01/24 07:14:08;;;;;;;9.45;5.03;;;;;;;9.05;50.69;100843.75;4953562;29;20043;-40
2024/01/24 07:16:33;;;;;;;7.60;4.47;;;;;;;8.78;51.13;100847.56;4953312;29;20522;-36
2024/01/24 07:18:58;;;;;;;10.73;4.85;;;;;;;8.77;51.19;100832.63;4953125;29;20023;-38
2024/01/24 07:21:25;;;;;;;6.63;4.15;;;;;;;8.30;51.83;100846.44;4953204;29;20023;-39
2024/01/24 07:23:50;;;;;;;9.15;4.43;;;;;;;8.39;52.06;100848.94;4953042;29;20030;-40
2024/01/24 07:26:16;;;;;;;8.27;4.60;;;;;;;8.41;51.84;100847.03;4953193;29;20031;-42
2024/01/24 07:28:41;;;;;;;7.80;3.95;;;;;;;8.39;51.88;100846.28;4953016;29;20019;-39
2024/01/24 07:31:07;;;;;;;7.82;4.68;;;;;;;8.77;51.12;100854.69;4953101;29;20090;-39
2024/01/24 07:33:33;;;;;;;7.60;4.57;;;;;;;9.08;50.18;100854.06;4953198;29;20098;-36
2024/01/24 07:35:58;;;;;;;7.57;4.70;;;;;;;8.47;51.61;100856.13;4952694;29;20480;-38
2024/01/24 07:38:23;;;;;;;8.18;5.05;;;;;;;8.80;51.03;100858.84;4952528;29;20031;-39
2024/01/24 07:40:49;;;;;;;8.45;4.70;;;;;;;8.92;50.32;100867.31;4953027;29;20401;-37
2024/01/24 07:43:15;;;;;;;8.80;4.80;;;;;;;9.30;49.28;100876.44;4952712;29;20027;-38
2024/01/24 07:45:41;;;;;;;8.75;5.03;;;;;;;9.05;49.89;100864.19;4952844;29;20479;-40
2024/01/24 07:48:07;;;;;;;7.35;4.63;;;;;;;9.57;48.14;100869.09;4953032;29;20507;-41
2024/01/24 07:50:33;;;;;;;9.75;5.43;;;;;;;9.32;49.41;100865.66;4953068;28;20112;-40
2024/01/24 07:52:58;;;;;;;6.90;4.50;;;;;;;9.74;48.66;100868.03;4956085;29;20058;-40
2024/01/24 07:55:24;;;;;;;7.55;4.70;;;;;;;10.06;47.11;100873.44;4957000;29;20019;-38
2024/01/24 07:57:49;;;;;;;10.10;5.75;;;;;;;9.69;47.90;100862.44;4956401;29;20506;-38
2024/01/24 08:00:16;;;;;;;12.57;4.85;;;;;;;9.41;48.55;100866.47;4956463;29;20023;-39
2024/01/24 08:02:44;;;;;;;8.35;4.82;;;;;;;10.18;47.02;100867.56;4956655;29;20108;-41
2024/01/24 08:05:12;;;;;;;8.60;4.25;;;;;;;9.32;48.21;100866.47;4956504;29;20023;-41
2024/01/24 08:07:41;;;;;;;8.23;4.75;;;;;;;9.64;47.85;100858.63;4955857;29;20019;-39
2024/01/24 08:10:10;;;;;;;9.38;4.60;;;;;;;9.65;47.78;100868.25;4956427;29;20128;-43
2024/01/24 08:12:37;;;;;;;10.88;4.68;;;;;;;9.74;47.93;100876.03;4956529;29;20037;-40
2024/01/24 08:15:07;;;;;;;8.82;4.78;;;;;;;10.24;46.26;100881.97;4956552;29;20019;-41
2024/01/24 08:17:34;;;;;;;7.70;4.88;;;;;;;10.35;46.57;100899.44;4956604;29;20070;-45
2024/01/24 08:20:00;;;;;;;7.78;4.65;;;;;;;10.51;46.16;100887.91;4956251;29;20030;-43
2024/01/24 08:22:29;;;;;;;9.90;5.30;;;;;;;11.50;44.26;100896.78;4956577;29;20019;-43
2024/01/24 08:24:54;;;;;;;7.28;4.68;;;;;;;11.17;44.03;100893.56;4956494;29;20126;-42
2024/01/24 08:27:20;;;;;;;10.60;4.78;;;;;;;11.41;44.61;100875.72;4956263;29;20031;-45
2024/01/24 08:29:45;;;;;;;12.88;8.20;;;;;;;11.45;43.88;100888.50;4956465;29;20023;-44
2024/01/24 08:32:11;;;;;;;8.77;4.70;;;;;;;11.11;44.46;100891.63;4955939;29;20079;-43
2024/01/24 08:34:36;;;;;;;8.00;4.40;;;;;;;11.44;43.52;100889.53;4955978;29;20035;-42
2024/01/24 08:37:02;;;;;;;8.30;4.10;;;;;;;11.03;44.59;100903.19;4956172;29;20049;-43
2024/01/24 08:39:27;;;;;;;6.45;4.20;;;;;;;11.55;43.88;100896.22;4956047;29;20024;-41
2024/01/24 08:41:53;;;;;;;8.35;4.60;;;;;;;12.02;42.78;100902.28;4956160;29;20019;-42
2024/01/24 08:44:18;;;;;;;9.27;4.55;;;;;;;12.01;41.98;100897.94;4956170;29;20027;-42
2024/01/24 08:46:43;;;;;;;6.97;4.65;;;;;;;10.99;44.31;100903.72;4956271;29;20031;-40
2024/01/24 08:49:12;;;;;;;7.30;4.38;;;;;;;11.16;43.88;100889.28;4955802;29;20024;-43
2024/01/24 08:51:38;;;;;;;8.77;4.50;;;;;;;11.53;43.33;100892.94;4956203;29;20407;-42
2024/01/24 08:54:04;;;;;;;8.75;4.85;;;;;;;11.47;43.18;100902.47;4955814;29;20539;-41
2024/01/24 08:56:29;;;;;;;9.60;4.78;;;;;;;11.12;44.49;100903.97;4955857;29;20037;-42
2024/01/24 08:58:54;;;;;;;12.93;4.45;;;;;;;11.08;44.94;100900.81;4955656;29;20389;-42
2024/01/24 09:01:20;;;;;;;9.80;4.68;;;;;;;12.15;42.72;100898.94;4955805;29;20023;-43
2024/01/24 09:03:47;;;;;;;11.45;4.97;;;;;;;11.90;42.95;100907.25;4955729;28;20027;-44
2024/01/24 09:06:12;;;;;;;12.88;4.85;;;;;;;12.00;42.82;100897.13;4955864;29;20038;-45
2024/01/24 09:08:37;;;;;;;7.65;4.88;;;;;;;11.58;43.29;100895.88;4955535;29;20035;-44
2024/01/24 09:11:03;;;;;;;8.45;4.38;;;;;;;11.62;43.00;100888.34;4955371;29;20496;-40
2024/01/24 09:13:29;;;;;;;7.47;4.50;;;;;;;11.37;43.55;100874.44;4955732;29;20102;-39
2024/01/24 09:15:55;;;;;;;8.20;4.38;;;;;;;11.50;43.26;100874.66;4955759;29;20065;-44
2024/01/24 09:18:20;;;;;;;9.18;4.82;;;;;;;10.95;44.25;100884.59;4955566;29;20058;-40
2024/01/24 09:20:46;;;;;;;10.63;4.80;;;;;;;11.27;44.37;100877.34;4954617;29;20476;-41
2024/01/24 09:23:12;;;;;;;10.02;4.78;;;;;;;11.31;44.67;100866.16;4955257;29;20019;-43
2024/01/24 09:25:38;;;;;;;9.90;4.57;;;;;;;11.45;43.51;100875.19;4954911;29;20464;-42
2024/01/24 09:28:05;;;;;;;6.47;4.25;;;;;;;11.59;44.20;100860.19;4955057;29;20031;-40
2024/01/24 09:30:31;;;;;;;7.65;4.70;;;;;;;11.00;45.20;100871.56;4955262;29;20031;-42
2024/01/24 09:32:56;;;;;;;8.43;5.60;;;;;;;11.82;43.51;100864.63;4955224;29;20130;-40
2024/01/24 09:35:21;;;;;;;11.23;5.85;;;;;;;11.74;44.05;100873.53;4955150;29;20050;-40
2024/01/24 09:37:47;;;;;;;8.65;5.05;;;;;;;11.67;43.75;100867.28;4955412;29;20054;-41
2024/01/24 09:40:16;;;;;;;8.77;4.78;;;;;;;12.02;43.41;100865.75;4955136;29;20153;-40
2024/01/24 09:42:43;;;;;;;7.75;5.05;;;;;;;12.08;43.03;100837.50;4955108;29;20054;-42
2024/01/24 09:45:09;;;;;;;9.63;5.05;;;;;;;11.31;44.85;100866.16;4954775;29;20031;-36
2024/01/24 09:47:36;;;;;;;9.82;4.82;;;;;;;12.09;42.80;100857.84;4954800;29;20062;-38
2024/01/24 09:50:06;;;;;;;9.13;5.20;;;;;;;12.25;43.05;100857.63;4954780;29;20106;-40
2024/01/24 09:52:35;;;;;;;7.63;5.43;;;;;;;12.44;42.64;100866.06;4954968;29;20031;-40
2024/01/24 09:55:06;;;;;;;9.68;5.03;;;;;;;12.65;41.55;100859.91;4954766;29;20031;-39
2024/01/24 09:57:32;;;;;;;10.48;4.95;;;;;;;12.19;42.73;100860.22;4954767;29;20027;-40
2024/01/24 09:59:58;;;;;;;7.80;4.82;;;;;;;12.58;42.28;100861.69;4954831;29;20042;-44
2024/01/24 10:02:25;;;;;;;10.27;5.50;;;;;;;12.35;42.64;100843.16;4954484;29;20365;-41
2024/01/24 10:04:52;;;;;;;7.38;5.10;;;;;;;12.21;42.72;100844.84;4954595;29;20019;-40
2024/01/24 10:07:18;;;;;;;9.45;4.90;;;;;;;10.98;45.06;100838.94;4954430;29;20170;-40
2024/01/24 10:09:44;;;;;;;7.25;4.80;;;;;;;10.95;44.54;100832.16;4954153;29;20034;-41
2024/01/24 10:12:09;;;;;;;7.32;4.90;;;;;;;10.83;44.96;100830.91;4954131;29;20023;-41
2024/01/24 10:14:35;;;;;;;8.23;5.13;;;;;;;11.23;44.42;100826.28;4953451;28;20045;-40
2024/01/24 10:17:05;;;;;;;7.53;4.72;;;;;;;11.25;44.93;100810.06;4954020;29;20035;-41
2024/01/24 10:19:30;;;;;;;10.20;4.90;;;;;;;11.80;43.16;100810.66;4953783;29;20094;-40
2024/01/24 10:21:56;;;;;;;9.73;4.95;;;;;;;11.84;43.98;100807.44;4954573;29;20031;-41
2024/01/24 10:24:21;;;;;;;9.32;5.30;;;;;;;12.08;43.30;100797.47;4954183;29;20507;-40
2024/01/24 10:26:47;;;;;;;9.10;5.18;;;;;;;12.54;42.29;100801.66;4954132;29;20412;-40
2024/01/24 10:29:12;;;;;;;7.57;4.40;;;;;;;12.51;41.81;100803.69;4953794;29;20036;-39
2024/01/24 10:31:38;;;;;;;11.60;4.75;;;;;;;11.64;43.35;100785.00;4954156;29;20043;-38
2024/01/24 10:34:04;;;;;;;7.22;4.22;;;;;;;11.45;43.63;100789.06;4954259;29;20035;-42
2024/01/24 10:36:30;;;;;;;7.70;4.25;;;;;;;12.74;41.43;100794.66;4954137;29;20512;-43
2024/01/24 10:39:03;;;;;;;6.55;3.97;;;;;;;11.68;42.36;100787.13;4954051;29;20114;-41
2024/01/24 10:41:32;;;;;;;6.60;4.32;;;;;;;10.93;44.65;100799.56;4953630;29;20539;-39
2024/01/24 10:44:06;;;;;;;7.72;4.55;;;;;;;11.11;43.95;100785.06;4953479;29;20023;-40
2024/01/24 10:46:33;;;;;;;12.05;4.22;;;;;;;11.14;43.85;100777.56;4953640;29;20449;-40
2024/01/24 10:48:59;;;;;;;7.60;4.32;;;;;;;11.15;44.07;100783.69;4953763;29;20102;-41
2024/01/24 10:51:26;;;;;;;7.97;4.53;;;;;;;11.31;43.57;100767.56;4953622;29;20123;-41
2024/01/24 10:53:52;;;;;;;8.10;4.50;;;;;;;11.59;43.21;100769.56;4953700;29;20027;-41
2024/01/24 10:56:19;;;;;;;6.57;4.15;;;;;;;11.82;42.66;100765.94;4953571;29;20038;-42
2024/01/24 10:58:45;;;;;;;7.38;4.63;;;;;;;11.28;43.81;100759.09;4953332;29;20031;-41
2024/01/24 11:01:11;;;;;;;5.72;3.97;;;;;;;10.82;43.66;100765.38;4953525;29;20083;-40
2024/01/24 11:03:36;;;;;;;7.07;4.30;;;;;;;11.13;43.75;100756.41;4953475;29;20522;-41
2024/01/24 11:06:08;;;;;;;7.68;4.40;;;;;;;11.17;43.93;100756.88;4953532;29;20027;-42
2024/01/24 11:08:38;;;;;;;7.28;4.20;;;;;;;11.62;42.74;100755.88;4953366;29;20027;-41
2024/01/24 11:11:09;;;;;;;;;;;;;;;11.92;42.25;100748.69;4953875;29;20061;-42
2024/01/24 11:13:35;;;;;;;8.50;4.45;;;;;;;11.88;42.39;100739.38;4953751;29;19922;-41
2024/01/24 11:16:25;;;;;;;10.23;5.32;;;;;;;12.21;41.93;100746.13;4953754;29;20035;-39
2024/01/24 11:18:51;;;;;;;6.55;4.00;;;;;;;12.83;40.67;100744.59;4953559;29;20035;-42
2024/01/24 11:21:20;;;;;;;7.53;4.50;;;;;;;12.90;40.79;100740.94;4953466;29;20019;-42
2024/01/24 11:23:48;;;;;;;10.07;4.35;;;;;;;12.67;40.28;100737.69;4953406;29;20062;-41